Time;durP1;ratioP1;P1;durP2;ratioP2;P2;SDS_P1;SDS_P2;PMS_P1;PMS_P2;Temp;Humidity;BMP_temperature;BMP_pressure;BME280_temperature;BME280_humidity;BME280_pressure;Samples;Min_cycle;Max_cycle;Signal;HPM_P1;HPM_P2
2021/03/10 00:00:56;;;;;;;14.00;8.20;;;12.60;56.80;;;;;;5055851;28;20438;-61
2021/03/10 00:03:22;;;;;;;16.40;9.07;;;12.70;57.00;;;;;;5072519;28;20525;-61
2021/03/10 00:05:50;;;;;;;20.17;9.40;;;12.70;56.70;;;;;;5075681;28;20448;-62
2021/03/10 00:08:17;;;;;;;16.03;8.50;;;12.70;56.90;;;;;;5075843;28;20433;-61
2021/03/10 00:10:45;;;;;;;18.37;8.80;;;12.60;56.80;;;;;;5071940;28;20549;-61
2021/03/10 00:13:12;;;;;;;14.90;8.80;;;12.70;56.80;;;;;;5055999;28;20523;-61
2021/03/10 00:15:39;;;;;;;22.10;9.17;;;12.60;56.90;;;;;;5055400;28;20524;-62
2021/03/10 00:18:09;;;;;;;16.57;9.17;;;12.60;56.90;;;;;;5055843;28;20470;-61
2021/03/10 00:20:36;;;;;;;12.57;8.40;;;12.60;56.90;;;;;;5068131;28;20433;-61
2021/03/10 00:23:04;;;;;;;16.07;9.20;;;12.70;56.90;;;;;;5075866;28;20521;-62
2021/03/10 00:25:30;;;;;;;15.43;8.90;;;12.70;56.90;;;;;;5074886;28;20497;-61
2021/03/10 00:27:57;;;;;;;14.33;8.13;;;12.70;56.90;;;;;;5075244;28;20487;-61
2021/03/10 00:30:24;;;;;;;14.60;8.93;;;12.60;56.80;;;;;;5054993;28;20513;-61
2021/03/10 00:32:51;;;;;;;14.80;8.53;;;12.60;57.10;;;;;;5054176;28;20532;-61
2021/03/10 00:35:29;;;;;;;13.83;7.63;;;12.60;56.90;;;;;;5055077;28;20521;-61
2021/03/10 00:38:04;;;;;;;14.10;8.07;;;12.60;56.90;;;;;;5074061;28;20445;-61
2021/03/10 00:40:31;;;;;;;15.30;9.30;;;12.60;56.80;;;;;;5095681;28;20413;-61
2021/03/10 00:43:02;;;;;;;13.03;7.63;;;12.70;57.00;;;;;;5095647;28;20437;-61
2021/03/10 00:45:29;;;;;;;15.40;8.20;;;12.60;57.00;;;;;;5095114;28;20519;-61
2021/03/10 00:47:56;;;;;;;18.70;8.20;;;12.60;57.00;;;;;;5074959;28;20473;-61
2021/03/10 00:50:35;;;;;;;16.17;8.90;;;12.60;57.00;;;;;;5075573;28;20561;-61
2021/03/10 00:53:02;;;;;;;15.17;8.10;;;12.60;57.00;;;;;;5075462;28;20472;-61
2021/03/10 00:55:29;;;;;;;13.90;8.47;;;12.70;56.90;;;;;;5066619;28;20447;-61
2021/03/10 00:57:56;;;;;;;14.23;8.20;;;12.60;57.00;;;;;;5054557;28;20528;-61
2021/03/10 01:00:24;;;;;;;13.10;8.70;;;12.60;57.00;;;;;;5055025;28;20450;-61
2021/03/10 01:02:51;;;;;;;15.40;7.97;;;12.60;57.00;;;;;;5054689;28;20462;-61
2021/03/10 01:05:17;;;;;;;16.83;9.07;;;12.60;56.90;;;;;;5086416;28;20483;-61
2021/03/10 01:07:44;;;;;;;14.40;8.53;;;12.60;57.00;;;;;;5095092;28;20436;-61
2021/03/10 01:10:12;;;;;;;15.60;8.73;;;12.60;56.90;;;;;;5095062;28;20492;-61
2021/03/10 01:12:39;;;;;;;16.33;7.93;;;12.60;56.90;;;;;;5094588;28;20504;-61
2021/03/10 01:15:07;;;;;;;15.33;8.10;;;12.60;56.80;;;;;;5094179;28;20456;-61
2021/03/10 01:17:34;;;;;;;13.47;8.10;;;12.60;56.80;;;;;;5094989;28;20464;-61
2021/03/10 01:20:01;;;;;;;13.97;8.90;;;12.60;57.00;;;;;;5095262;28;20472;-61
2021/03/10 01:22:35;;;;;;;13.23;8.20;;;12.50;56.90;;;;;;5094766;28;20526;-62
2021/03/10 01:25:02;;;;;;;16.97;8.80;;;12.50;57.00;;;;;;5094578;28;20424;-61
2021/03/10 01:27:29;;;;;;;14.40;8.57;;;12.60;56.90;;;;;;5095290;28;20473;-61
2021/03/10 01:29:57;;;;;;;13.40;7.60;;;12.60;57.00;;;;;;5094624;28;20484;-61
2021/03/10 01:32:24;;;;;;;13.13;7.80;;;12.60;57.00;;;;;;5054241;28;20485;-61
2021/03/10 01:34:51;;;;;;;12.70;7.70;;;12.50;56.90;;;;;;5053773;28;20446;-61
2021/03/10 01:37:18;;;;;;;13.60;8.67;;;12.60;57.00;;;;;;5054672;28;20427;-61
2021/03/10 01:39:44;;;;;;;14.13;8.43;;;12.50;57.00;;;;;;5069649;28;20476;-61
2021/03/10 01:42:12;;;;;;;12.37;7.43;;;12.60;57.00;;;;;;5094667;28;20495;-61
2021/03/10 01:44:39;;;;;;;13.27;7.83;;;12.50;57.10;;;;;;5093990;28;20526;-61
2021/03/10 01:47:06;;;;;;;11.03;7.60;;;12.50;57.10;;;;;;5094429;28;20449;-61
2021/03/10 01:49:33;;;;;;;11.80;7.30;;;12.50;57.10;;;;;;5094197;28;20492;-61
2021/03/10 01:52:00;;;;;;;13.07;8.00;;;12.50;57.10;;;;;;5094803;28;20476;-61
2021/03/10 01:54:27;;;;;;;12.97;8.17;;;12.60;57.10;;;;;;5094003;28;20539;-62
2021/03/10 01:56:54;;;;;;;15.27;8.20;;;12.50;57.00;;;;;;5091289;28;20469;-61
2021/03/10 01:59:21;;;;;;;13.07;7.53;;;12.50;57.00;;;;;;5073923;28;20497;-62
2021/03/10 02:01:48;;;;;;;13.30;8.70;;;12.50;57.10;;;;;;5074475;28;20520;-61
2021/03/10 02:04:16;;;;;;;13.03;8.00;;;12.50;57.00;;;;;;5074038;28;20445;-61
2021/03/10 02:06:50;;;;;;;18.27;9.03;;;12.50;57.00;;;;;;5074084;28;20437;-62
2021/03/10 02:09:19;;;;;;;13.97;8.13;;;12.40;57.00;;;;;;5073833;28;20481;-61
2021/03/10 02:11:49;;;;;;;13.77;8.17;;;12.50;57.20;;;;;;5073672;28;20537;-61
2021/03/10 02:14:21;;;;;;;13.23;8.23;;;12.50;57.10;;;;;;5072901;28;20461;-62
2021/03/10 02:16:49;;;;;;;13.47;7.93;;;12.50;57.10;;;;;;5053873;28;20502;-61
2021/03/10 02:19:34;;;;;;;13.53;8.70;;;12.50;57.10;;;;;;5053586;28;20438;-61
2021/03/10 02:22:04;;;;;;;13.47;8.20;;;12.50;56.90;;;;;;5053961;28;20514;-61
2021/03/10 02:24:38;;;;;;;13.53;8.00;;;12.60;56.90;;;;;;5077518;28;20592;-61
2021/03/10 02:27:48;;;;;;;11.00;7.20;;;12.40;57.10;;;;;;5094657;28;20489;-61
2021/03/10 02:30:17;;;;;;;12.33;7.50;;;12.50;57.00;;;;;;5094325;28;20491;-62
2021/03/10 02:32:46;;;;;;;11.40;7.23;;;12.30;57.10;;;;;;5080639;28;20477;-61
2021/03/10 02:35:13;;;;;;;14.47;7.90;;;12.40;57.20;;;;;;5053439;28;20526;-61
2021/03/10 02:37:43;;;;;;;13.00;7.80;;;12.40;57.10;;;;;;5053951;28;20542;-62
2021/03/10 02:40:11;;;;;;;15.50;8.80;;;12.50;57.20;;;;;;5053047;28;20482;-62
2021/03/10 02:42:38;;;;;;;11.93;7.10;;;12.40;57.20;;;;;;5051972;28;20438;-61
2021/03/10 02:45:06;;;;;;;12.00;7.37;;;12.50;57.20;;;;;;5053276;28;20490;-62
2021/03/10 02:47:34;;;;;;;13.50;7.73;;;12.40;57.30;;;;;;5053884;28;20508;-61
2021/03/10 02:50:01;;;;;;;11.50;7.37;;;12.40;57.30;;;;;;5057273;28;20568;-61
2021/03/10 02:52:28;;;;;;;12.90;8.20;;;12.50;57.10;;;;;;5073327;28;20437;-61
2021/03/10 02:54:54;;;;;;;11.67;7.53;;;12.50;57.00;;;;;;5072998;28;20491;-61
2021/03/10 02:57:21;;;;;;;14.60;7.77;;;12.40;57.10;;;;;;5076746;28;20434;-61
2021/03/10 02:59:48;;;;;;;17.60;8.30;;;12.40;57.00;;;;;;5087631;28;20522;-61
2021/03/10 03:02:16;;;;;;;14.70;8.07;;;12.50;57.10;;;;;;5097356;28;20456;-62
2021/03/10 03:04:44;;;;;;;13.97;7.80;;;12.40;57.20;;;;;;5096883;28;20472;-61
2021/03/10 03:07:20;;;;;;;15.53;8.20;;;12.40;57.10;;;;;;5097216;28;20431;-61
2021/03/10 03:09:47;;;;;;;13.50;7.70;;;12.40;57.10;;;;;;5057074;28;20458;-61
2021/03/10 03:12:14;;;;;;;14.47;8.40;;;12.40;57.10;;;;;;5057001;28;20446;-61
2021/03/10 03:14:42;;;;;;;16.17;8.50;;;12.40;57.10;;;;;;5056315;28;20492;-62
2021/03/10 03:17:09;;;;;;;17.03;8.63;;;12.40;57.20;;;;;;5065425;28;20477;-61
2021/03/10 03:19:36;;;;;;;16.13;9.80;;;12.40;57.10;;;;;;5076460;28;20504;-61
2021/03/10 03:22:04;;;;;;;12.90;7.73;;;12.40;57.30;;;;;;5076989;28;20472;-62
2021/03/10 03:24:31;;;;;;;13.40;8.17;;;12.40;57.20;;;;;;5076327;28;20540;-61
2021/03/10 03:26:58;;;;;;;13.70;8.30;;;12.40;57.20;;;;;;5077110;28;20514;-61
2021/03/10 03:29:25;;;;;;;11.90;7.30;;;12.40;57.10;;;;;;5076770;28;20550;-61
2021/03/10 03:31:53;;;;;;;13.47;7.90;;;12.40;57.20;;;;;;5076740;28;20465;-61
2021/03/10 03:34:20;;;;;;;10.77;7.57;;;12.40;57.10;;;;;;5079383;28;20456;-61
2021/03/10 03:36:47;;;;;;;12.17;7.80;;;12.50;57.10;;;;;;5096836;28;20440;-61
2021/03/10 03:39:16;;;;;;;16.17;8.50;;;12.40;57.20;;;;;;5096479;28;20483;-61
2021/03/10 03:41:43;;;;;;;13.50;8.37;;;12.40;57.20;;;;;;5097209;28;20529;-61
2021/03/10 03:44:10;;;;;;;14.40;8.63;;;12.40;57.20;;;;;;5095217;28;20457;-60
2021/03/10 03:46:37;;;;;;;14.07;8.27;;;12.50;57.00;;;;;;5096060;28;20481;-61
2021/03/10 03:49:04;;;;;;;14.30;7.47;;;12.40;57.10;;;;;;5095835;28;20448;-61
2021/03/10 03:51:32;;;;;;;12.33;7.60;;;12.40;57.20;;;;;;5096151;28;20473;-60
2021/03/10 03:53:59;;;;;;;12.27;7.97;;;12.30;57.30;;;;;;5075747;28;20430;-60
2021/03/10 03:56:27;;;;;;;14.43;7.97;;;12.20;57.70;;;;;;5075143;28;20429;-61
2021/03/10 03:58:54;;;;;;;14.20;8.43;;;12.10;57.80;;;;;;5075376;28;20489;-61
2021/03/10 04:01:21;;;;;;;14.00;7.93;;;12.20;57.80;;;;;;5082449;28;20440;-61
2021/03/10 04:03:48;;;;;;;15.20;8.13;;;12.30;57.30;;;;;;5095799;28;20471;-61
2021/03/10 04:06:15;;;;;;;15.30;8.60;;;12.30;57.40;;;;;;5095295;28;20502;-60
2021/03/10 04:08:43;;;;;;;13.13;8.00;;;12.30;57.30;;;;;;5095879;28;20468;-61
2021/03/10 04:11:10;;;;;;;14.33;8.03;;;12.30;57.30;;;;;;5079988;28;20481;-61
2021/03/10 04:13:37;;;;;;;14.80;8.60;;;12.30;57.20;;;;;;5075720;28;20508;-60
2021/03/10 04:16:05;;;;;;;16.40;8.97;;;12.20;57.40;;;;;;5075294;28;20465;-61
2021/03/10 04:18:32;;;;;;;14.50;9.13;;;12.20;57.40;;;;;;5075764;28;20444;-60
2021/03/10 04:20:59;;;;;;;16.30;9.40;;;12.30;57.40;;;;;;5075554;28;20524;-60
2021/03/10 04:23:26;;;;;;;15.53;8.53;;;12.30;57.30;;;;;;5075773;28;20495;-60
2021/03/10 04:26:05;;;;;;;16.27;9.60;;;12.30;57.30;;;;;;5074732;28;20442;-61
2021/03/10 04:28:32;;;;;;;17.57;9.20;;;12.20;57.30;;;;;;5075953;28;20496;-61
2021/03/10 04:31:00;;;;;;;16.17;8.87;;;12.10;57.50;;;;;;5075383;28;20480;-60
2021/03/10 04:33:27;;;;;;;15.00;9.27;;;12.20;57.40;;;;;;5075154;28;20446;-60
2021/03/10 04:35:54;;;;;;;16.40;9.40;;;12.20;57.30;;;;;;5074096;28;20449;-60
2021/03/10 04:38:27;;;;;;;16.40;9.60;;;12.20;57.20;;;;;;5075047;28;20438;-61
2021/03/10 04:40:58;;;;;;;16.90;9.80;;;12.10;57.30;;;;;;5075141;28;20533;-61
2021/03/10 04:43:25;;;;;;;18.20;10.30;;;12.20;57.20;;;;;;5074793;28;20437;-61
2021/03/10 04:45:52;;;;;;;20.23;9.63;;;12.10;57.30;;;;;;5065378;28;20450;-60
2021/03/10 04:48:20;;;;;;;16.90;9.60;;;12.10;57.20;;;;;;5055269;28;20446;-60
2021/03/10 04:50:47;;;;;;;15.90;9.33;;;12.20;57.40;;;;;;5054927;28;20565;-60
2021/03/10 04:53:13;;;;;;;17.27;9.27;;;12.20;57.20;;;;;;5054980;28;20533;-60
2021/03/10 04:55:40;;;;;;;15.20;8.93;;;12.20;57.20;;;;;;5072522;28;20442;-61
2021/03/10 04:58:07;;;;;;;18.60;10.63;;;12.20;57.10;;;;;;5074401;28;20480;-61
2021/03/10 05:00:34;;;;;;;18.23;10.23;;;12.20;57.10;;;;;;5074766;28;20512;-60
2021/03/10 05:03:01;;;;;;;18.27;9.50;;;12.20;57.10;;;;;;5079806;28;20535;-60
2021/03/10 05:05:28;;;;;;;18.03;10.03;;;12.20;57.20;;;;;;5094756;28;20464;-61
2021/03/10 05:07:55;;;;;;;18.77;11.13;;;12.10;57.40;;;;;;5095099;28;20500;-61
2021/03/10 05:10:22;;;;;;;16.60;9.80;;;12.10;57.40;;;;;;5094628;28;20511;-61
2021/03/10 05:12:49;;;;;;;20.07;10.10;;;12.10;57.30;;;;;;5094924;28;20468;-60
2021/03/10 05:15:16;;;;;;;16.30;8.93;;;12.00;57.20;;;;;;5094623;28;20461;-61
2021/03/10 05:17:42;;;;;;;16.10;9.30;;;12.10;57.30;;;;;;5094747;28;20522;-61
2021/03/10 05:20:11;;;;;;;16.87;9.70;;;12.10;57.40;;;;;;5094188;28;20461;-60
2021/03/10 05:22:40;;;;;;;18.67;9.30;;;12.10;57.40;;;;;;5074427;28;20438;-61
2021/03/10 05:25:08;;;;;;;18.77;8.83;;;12.10;57.40;;;;;;5074002;28;20463;-61
2021/03/10 05:27:35;;;;;;;18.80;9.93;;;12.10;57.30;;;;;;5074527;28;20488;-61
2021/03/10 05:30:02;;;;;;;18.90;9.97;;;12.00;58.00;;;;;;5083012;28;20519;-61
2021/03/10 05:32:29;;;;;;;17.30;9.60;;;12.00;57.40;;;;;;5094519;28;20461;-61
2021/03/10 05:35:05;;;;;;;14.33;8.80;;;12.00;57.60;;;;;;5094497;28;20447;-61
2021/03/10 05:37:36;;;;;;;18.37;9.47;;;11.90;57.40;;;;;;5094640;28;20451;-61
2021/03/10 05:40:05;;;;;;;16.83;9.53;;;12.00;57.60;;;;;;5057076;28;20537;-61
2021/03/10 05:42:32;;;;;;;17.60;9.40;;;11.80;57.60;;;;;;5053925;28;20541;-61
2021/03/10 05:44:59;;;;;;;16.40;9.30;;;11.80;57.90;;;;;;5053475;28;20462;-61
2021/03/10 05:47:26;;;;;;;16.97;9.40;;;11.90;57.80;;;;;;5066140;28;20459;-61
2021/03/10 05:49:53;;;;;;;17.93;10.07;;;11.90;57.80;;;;;;5094388;28;20468;-61
2021/03/10 05:52:22;;;;;;;15.03;8.87;;;11.90;57.70;;;;;;5094801;28;20440;-61
2021/03/10 05:54:51;;;;;;;16.13;8.50;;;11.90;57.80;;;;;;5094182;28;20459;-61
2021/03/10 05:57:18;;;;;;;15.57;8.70;;;11.80;57.90;;;;;;5080139;28;20481;-61
2021/03/10 05:59:45;;;;;;;15.23;9.17;;;11.80;57.90;;;;;;5074396;28;20437;-61
2021/03/10 06:02:13;;;;;;;18.37;9.90;;;11.80;58.00;;;;;;5073785;28;20442;-61
2021/03/10 06:04:41;;;;;;;15.90;8.93;;;11.80;57.80;;;;;;5073352;28;20449;-61
2021/03/10 06:07:18;;;;;;;18.17;9.73;;;11.70;58.00;;;;;;5073792;28;20462;-61
2021/03/10 06:09:58;;;;;;;16.10;8.77;;;11.80;58.10;;;;;;5073437;28;20511;-61
2021/03/10 06:12:36;;;;;;;15.73;9.10;;;11.80;57.90;;;;;;5074246;28;20430;-61
2021/03/10 06:15:03;;;;;;;16.93;9.20;;;11.90;57.80;;;;;;5057929;28;20499;-61
2021/03/10 06:17:40;;;;;;;14.37;8.40;;;11.80;57.90;;;;;;5053827;28;20462;-61
2021/03/10 06:20:08;;;;;;;13.90;8.70;;;11.80;58.00;;;;;;5053281;28;20422;-61
2021/03/10 06:22:35;;;;;;;14.83;9.03;;;11.80;57.80;;;;;;5058196;28;20477;-61
2021/03/10 06:25:02;;;;;;;16.93;9.00;;;11.80;57.90;;;;;;5073648;28;20507;-61
2021/03/10 06:27:34;;;;;;;14.53;8.60;;;11.80;57.80;;;;;;5073791;28;20461;-61
2021/03/10 06:30:01;;;;;;;14.70;9.00;;;11.80;57.80;;;;;;5074419;28;20501;-61
2021/03/10 06:32:29;;;;;;;14.70;8.70;;;11.80;57.70;;;;;;5077569;28;20460;-62
2021/03/10 06:34:56;;;;;;;15.73;9.17;;;11.80;57.70;;;;;;5077286;28;20457;-61
2021/03/10 06:37:27;;;;;;;15.73;8.63;;;11.90;57.60;;;;;;5077812;28;20468;-61
2021/03/10 06:40:08;;;;;;;15.70;8.93;;;11.90;57.70;;;;;;5076140;28;20441;-61
2021/03/10 06:42:36;;;;;;;16.30;8.80;;;11.90;57.60;;;;;;5057793;28;20505;-61
2021/03/10 06:45:06;;;;;;;17.30;9.00;;;11.90;57.60;;;;;;5057315;28;20434;-62
2021/03/10 06:47:36;;;;;;;18.37;9.80;;;12.00;57.50;;;;;;5057209;28;20450;-61
2021/03/10 06:50:05;;;;;;;19.27;10.30;;;12.00;57.40;;;;;;5058348;28;20474;-61
2021/03/10 06:52:31;;;;;;;16.50;9.50;;;11.90;57.40;;;;;;5057844;28;20453;-61
2021/03/10 06:54:59;;;;;;;18.40;8.90;;;11.90;57.40;;;;;;5057149;28;20515;-61
2021/03/10 06:57:26;;;;;;;14.60;9.00;;;11.90;57.50;;;;;;5057822;28;20481;-61
2021/03/10 06:59:54;;;;;;;17.90;9.80;;;12.00;57.60;;;;;;5056931;28;20434;-61
2021/03/10 07:02:22;;;;;;;15.20;9.00;;;12.00;57.30;;;;;;5057147;28;20528;-61
2021/03/10 07:04:50;;;;;;;16.03;9.60;;;12.00;57.40;;;;;;5056820;28;20414;-61
2021/03/10 07:07:17;;;;;;;19.97;9.97;;;12.00;57.30;;;;;;5057138;28;20478;-61
2021/03/10 07:09:44;;;;;;;16.77;9.60;;;12.00;57.20;;;;;;5056283;28;20468;-54
2021/03/10 07:12:14;;;;;;;18.47;10.40;;;12.00;57.10;;;;;;5056474;28;20484;-52
2021/03/10 07:14:41;;;;;;;16.53;9.33;;;12.00;57.00;;;;;;5056415;28;20438;-55
2021/03/10 07:17:09;;;;;;;16.17;9.23;;;12.10;57.00;;;;;;5073036;28;20503;-60
2021/03/10 07:19:36;;;;;;;17.93;10.07;;;12.10;56.90;;;;;;5076355;28;20418;-62
2021/03/10 07:22:05;;;;;;;18.30;9.70;;;12.10;56.80;;;;;;5076640;28;20456;-52
2021/03/10 07:24:34;;;;;;;18.27;10.10;;;12.10;57.10;;;;;;5075833;28;20481;-53
2021/03/10 07:27:02;;;;;;;22.87;11.60;;;12.20;56.80;;;;;;5076447;28;20441;-58
2021/03/10 07:29:34;;;;;;;18.77;10.70;;;12.20;56.90;;;;;;5076417;28;20521;-58
2021/03/10 07:32:01;;;;;;;18.20;10.70;;;12.20;56.70;;;;;;5075929;28;20482;-58
2021/03/10 07:34:29;;;;;;;19.63;10.17;;;12.30;56.50;;;;;;5089285;28;20448;-54
2021/03/10 07:36:56;;;;;;;19.40;10.60;;;12.30;56.40;;;;;;5096702;28;20437;-55
2021/03/10 07:39:23;;;;;;;18.77;10.43;;;12.30;56.50;;;;;;5096797;28;20472;-54
2021/03/10 07:41:50;;;;;;;17.93;10.23;;;12.30;56.40;;;;;;5095815;28;20437;-61
2021/03/10 07:44:19;;;;;;;19.73;10.83;;;12.50;56.20;;;;;;5095577;28;20476;-61
2021/03/10 07:46:46;;;;;;;19.93;11.03;;;12.40;56.20;;;;;;5096379;28;20476;-61
2021/03/10 07:49:21;;;;;;;19.57;11.37;;;12.40;56.00;;;;;;5096483;28;20459;-61
2021/03/10 07:51:49;;;;;;;19.23;10.83;;;12.40;56.10;;;;;;5086646;28;20480;-62
2021/03/10 07:54:18;;;;;;;20.30;11.07;;;12.40;56.20;;;;;;5076014;28;20446;-63
2021/03/10 07:56:45;;;;;;;16.87;10.90;;;12.40;56.00;;;;;;5075903;28;20485;-61
2021/03/10 07:59:12;;;;;;;20.53;11.60;;;12.40;55.90;;;;;;5075541;28;20449;-61
2021/03/10 08:01:39;;;;;;;22.43;11.40;;;12.50;55.90;;;;;;5094540;28;20441;-62
2021/03/10 08:04:13;;;;;;;20.67;12.03;;;12.50;55.60;;;;;;5096253;28;20443;-62
2021/03/10 08:06:41;;;;;;;27.17;13.23;;;12.50;55.70;;;;;;5096253;28;20480;-62
2021/03/10 08:09:09;;;;;;;22.10;11.53;;;12.60;55.50;;;;;;5089058;28;20454;-62
2021/03/10 08:11:46;;;;;;;19.70;11.50;;;12.60;55.60;;;;;;5075752;28;20473;-62
2021/03/10 08:14:15;;;;;;;19.10;11.70;;;12.70;55.30;;;;;;5075452;28;20426;-61
2021/03/10 08:16:43;;;;;;;24.20;12.73;;;12.70;55.30;;;;;;5075781;28;20500;-61
2021/03/10 08:19:10;;;;;;;25.33;12.97;;;12.80;55.20;;;;;;5075151;28;20445;-62
2021/03/10 08:21:46;;;;;;;21.00;11.60;;;12.80;54.80;;;;;;5075931;28;20433;-62
2021/03/10 08:24:13;;;;;;;24.83;13.23;;;12.80;54.90;;;;;;5075063;28;20525;-60
2021/03/10 08:26:41;;;;;;;60.30;28.10;;;12.80;54.80;;;;;;5075913;28;20472;-61
2021/03/10 08:29:08;;;;;;;62.87;28.53;;;8.50;56.00;;;;;;5075804;28;20441;-64
2021/03/10 08:31:43;;;;;;;71.57;30.43;;;7.60;62.50;;;;;;5074931;28;20532;-64
2021/03/10 08:34:10;;;;;;;61.13;28.90;;;6.70;63.90;;;;;;5074417;28;20441;-64
2021/03/10 08:36:37;;;;;;;76.67;29.57;;;6.40;65.10;;;;;;5060040;28;20482;-64
2021/03/10 08:39:08;;;;;;;66.80;29.70;;;6.20;67.70;;;;;;5054600;28;20525;-64
2021/03/10 08:41:46;;;;;;;74.73;31.23;;;6.70;66.70;;;;;;5055014;28;20449;-64
2021/03/10 08:44:13;;;;;;;75.43;29.70;;;6.40;65.50;;;;;;5058416;28;20472;-54
2021/03/10 08:46:40;;;;;;;57.00;26.83;;;6.80;67.70;;;;;;5074962;28;20441;-55
2021/03/10 08:49:18;;;;;;;58.53;26.93;;;8.10;64.00;;;;;;5074691;28;20446;-56
2021/03/10 08:51:45;;;;;;;63.50;27.73;;;9.20;60.60;;;;;;5074940;28;20473;-56
2021/03/10 08:54:12;;;;;;;59.17;27.40;;;9.90;58.60;;;;;;5074776;28;20507;-55
2021/03/10 08:56:48;;;;;;;57.67;26.67;;;10.40;56.40;;;;;;5075257;28;20520;-53
2021/03/10 08:59:15;;;;;;;59.00;26.33;;;10.80;55.40;;;;;;5074704;28;20430;-56
2021/03/10 09:01:46;;;;;;;52.30;25.60;;;11.10;54.80;;;;;;5076693;28;20509;-56
2021/03/10 09:04:20;;;;;;;56.77;26.30;;;11.40;54.20;;;;;;5094795;28;20502;-58
2021/03/10 09:06:47;;;;;;;53.20;24.53;;;11.60;53.60;;;;;;5094824;28;20437;-55
2021/03/10 09:09:14;;;;;;;51.00;25.10;;;11.90;53.40;;;;;;5095405;28;20456;-51
2021/03/10 09:11:57;;;;;;;53.60;25.23;;;12.00;52.80;;;;;;5067380;28;20478;-58
2021/03/10 09:14:27;;;;;;;54.23;24.73;;;12.30;52.50;;;;;;5053663;28;20449;-57
2021/03/10 09:16:55;;;;;;;50.30;24.87;;;12.40;52.30;;;;;;5054194;28;20497;-55
2021/03/10 09:19:35;;;;;;;43.57;22.40;;;12.60;52.00;;;;;;5055123;28;20442;-62
2021/03/10 09:22:09;;;;;;;49.60;24.40;;;12.70;51.90;;;;;;5054132;28;20438;-59
2021/03/10 09:24:50;;;;;;;51.00;23.57;;;12.70;51.80;;;;;;5053594;28;20439;-59
2021/03/10 09:27:19;;;;;;;50.77;24.73;;;12.90;51.70;;;;;;5053817;28;20450;-59
2021/03/10 09:29:46;;;;;;;48.37;23.40;;;13.00;51.50;;;;;;5068666;28;20460;-60
2021/03/10 09:32:13;;;;;;;48.00;24.97;;;13.10;51.40;;;;;;5074157;28;20554;-59
2021/03/10 09:34:40;;;;;;;47.07;22.57;;;13.20;51.30;;;;;;5073689;28;20425;-59
2021/03/10 09:37:08;;;;;;;44.53;23.47;;;13.20;51.00;;;;;;5072107;28;20536;-59
2021/03/10 09:39:45;;;;;;;51.83;23.67;;;13.40;51.10;;;;;;5054518;28;20454;-59
2021/03/10 09:42:13;;;;;;;44.10;23.67;;;13.40;51.20;;;;;;5054409;28;20430;-58
2021/03/10 09:44:52;;;;;;;40.80;21.77;;;13.50;51.10;;;;;;5054901;28;20438;-58
2021/03/10 09:47:21;;;;;;;45.07;22.60;;;13.50;51.10;;;;;;5069809;28;20459;-57
2021/03/10 09:49:54;;;;;;;40.70;21.70;;;13.50;51.00;;;;;;5074473;28;20507;-57
2021/03/10 09:52:32;;;;;;;43.30;22.13;;;13.60;51.00;;;;;;5074287;28;20469;-59
2021/03/10 09:54:58;;;;;;;38.90;21.83;;;13.80;50.70;;;;;;5060512;28;20498;-59
2021/03/10 09:57:27;;;;;;;42.73;22.27;;;13.90;50.50;;;;;;5074554;28;20464;-59
2021/03/10 10:00:04;;;;;;;47.23;21.93;;;14.10;50.20;;;;;;5074571;28;20433;-58
2021/03/10 10:02:31;;;;;;;45.73;21.67;;;14.30;50.10;;;;;;5074166;28;20471;-59
2021/03/10 10:05:00;;;;;;;39.47;21.40;;;14.50;49.90;;;;;;5076188;28;20438;-59
2021/03/10 10:07:33;;;;;;;40.37;21.67;;;14.60;49.70;;;;;;5078617;28;20479;-59
2021/03/10 10:10:00;;;;;;;38.80;21.47;;;14.70;49.50;;;;;;5078405;28;20461;-59
2021/03/10 10:12:47;;;;;;;37.70;20.83;;;14.70;49.80;;;;;;5078373;28;20437;-59
2021/03/10 10:15:16;;;;;;;42.37;20.10;;;14.70;50.00;;;;;;5077502;28;20559;-59
2021/03/10 10:17:44;;;;;;;36.83;19.50;;;14.50;50.20;;;;;;5078387;28;20491;-59
2021/03/10 10:20:19;;;;;;;36.07;20.10;;;14.50;50.60;;;;;;5077919;28;20461;-59
2021/03/10 10:22:46;;;;;;;37.03;18.87;;;14.50;50.60;;;;;;5091495;28;20439;-59
2021/03/10 10:25:16;;;;;;;35.63;19.40;;;14.50;50.60;;;;;;5097967;28;20432;-59
2021/03/10 10:27:43;;;;;;;39.93;20.47;;;14.70;50.30;;;;;;5098263;28;20503;-60
2021/03/10 10:30:13;;;;;;;34.80;18.23;;;14.80;50.40;;;;;;5096496;28;20535;-59
2021/03/10 10:32:41;;;;;;;39.53;21.20;;;14.80;50.30;;;;;;5077915;28;20484;-59
2021/03/10 10:35:09;;;;;;;33.93;18.80;;;14.80;50.40;;;;;;5077958;28;20440;-58
2021/03/10 10:37:36;;;;;;;34.03;19.10;;;14.80;50.40;;;;;;5077769;28;20437;-57
2021/03/10 10:40:04;;;;;;;34.20;18.97;;;14.80;50.50;;;;;;5067633;28;20445;-60
2021/03/10 10:42:31;;;;;;;34.80;18.90;;;14.80;50.20;;;;;;5057539;28;20473;-58
2021/03/10 10:44:59;;;;;;;29.13;17.53;;;14.90;50.20;;;;;;5056976;28;20484;-59
2021/03/10 10:47:26;;;;;;;33.93;19.37;;;14.80;50.00;;;;;;5057098;28;20485;-57
2021/03/10 10:49:54;;;;;;;28.67;17.73;;;14.90;50.10;;;;;;5075421;28;20540;-59
2021/03/10 10:52:22;;;;;;;38.80;19.23;;;14.90;50.00;;;;;;5077385;28;20500;-60
2021/03/10 10:54:49;;;;;;;28.53;17.17;;;14.80;50.20;;;;;;5076355;28;20437;-60
2021/03/10 10:57:16;;;;;;;32.83;18.60;;;14.80;50.10;;;;;;5076665;28;20467;-59
2021/03/10 10:59:43;;;;;;;30.97;17.97;;;14.90;50.00;;;;;;5077028;28;20449;-59
2021/03/10 11:02:10;;;;;;;29.47;17.30;;;15.00;49.80;;;;;;5076922;28;20433;-60
2021/03/10 11:04:38;;;;;;;29.43;17.90;;;15.00;49.80;;;;;;5076118;28;20433;-60
2021/03/10 11:07:08;;;;;;;29.17;17.73;;;15.10;49.70;;;;;;5063100;28;20438;-60
2021/03/10 11:09:36;;;;;;;28.00;16.90;;;15.00;49.70;;;;;;5057664;28;20450;-59
2021/03/10 11:12:04;;;;;;;29.07;16.80;;;15.10;49.80;;;;;;5057376;28;20474;-61
2021/03/10 11:14:30;;;;;;;26.30;16.57;;;15.10;49.80;;;;;;5061668;28;20442;-61
2021/03/10 11:16:58;;;;;;;29.10;16.63;;;15.10;49.90;;;;;;5096638;28;20508;-60
2021/03/10 11:19:25;;;;;;;27.40;17.20;;;15.10;49.90;;;;;;5097339;28;20441;-60
2021/03/10 11:21:52;;;;;;;27.33;16.37;;;15.20;49.80;;;;;;5097422;28;20444;-60
2021/03/10 11:24:19;;;;;;;25.13;15.70;;;15.30;49.70;;;;;;5095727;28;20497;-60
2021/03/10 11:26:47;;;;;;;25.10;15.53;;;15.20;49.80;;;;;;5096886;28;20448;-60
2021/03/10 11:29:14;;;;;;;24.40;15.70;;;15.30;49.60;;;;;;5096672;28;20437;-60
2021/03/10 11:31:41;;;;;;;29.93;17.17;;;15.50;49.20;;;;;;5096459;28;20515;-60
2021/03/10 11:34:08;;;;;;;28.77;16.93;;;15.40;49.10;;;;;;5096199;28;20465;-59
2021/03/10 11:36:36;;;;;;;23.00;15.47;;;15.50;49.20;;;;;;5097000;28;20416;-59
2021/03/10 11:39:04;;;;;;;23.17;15.17;;;15.40;49.30;;;;;;5096834;28;20445;-59
2021/03/10 11:41:33;;;;;;;26.37;16.43;;;15.30;49.40;;;;;;5090531;28;20426;-59
2021/03/10 11:44:00;;;;;;;23.83;15.20;;;15.30;49.70;;;;;;5076271;28;20445;-60
2021/03/10 11:46:27;;;;;;;28.17;17.00;;;15.20;49.60;;;;;;5076335;28;20481;-59
2021/03/10 11:48:54;;;;;;;23.80;15.57;;;15.30;49.60;;;;;;5076905;28;20457;-59
2021/03/10 11:51:21;;;;;;;21.10;14.80;;;15.40;49.50;;;;;;5076857;28;20481;-59
2021/03/10 11:53:48;;;;;;;27.50;15.67;;;15.60;49.20;;;;;;5076379;28;20541;-59
2021/03/10 11:56:17;;;;;;;25.03;15.30;;;15.80;48.90;;;;;;5076192;28;20465;-60
2021/03/10 11:58:44;;;;;;;23.40;15.10;;;15.90;48.30;;;;;;5073442;28;20519;-60
2021/03/10 12:01:12;;;;;;;23.43;14.80;;;15.90;48.30;;;;;;5064937;28;20488;-59
2021/03/10 12:03:39;;;;;;;25.67;15.90;;;15.80;48.40;;;;;;5076620;28;20454;-60
2021/03/10 12:06:06;;;;;;;26.00;15.70;;;15.70;48.60;;;;;;5074766;28;20449;-59
2021/03/10 12:08:35;;;;;;;23.17;15.17;;;15.50;48.90;;;;;;5074733;28;20437;-59
2021/03/10 12:11:02;;;;;;;25.03;14.67;;;15.40;49.00;;;;;;5076229;28;20477;-59
2021/03/10 12:13:29;;;;;;;23.90;15.27;;;15.30;49.40;;;;;;5076120;28;20444;-59
2021/03/10 12:15:57;;;;;;;25.10;14.87;;;15.20;49.40;;;;;;5075903;28;20477;-59
2021/03/10 12:18:38;;;;;;;23.67;15.90;;;15.20;49.40;;;;;;5076180;28;20445;-60
2021/03/10 12:21:08;;;;;;;24.13;14.80;;;15.10;49.60;;;;;;5076044;28;20429;-60
2021/03/10 12:23:35;;;;;;;25.77;14.73;;;15.00;49.80;;;;;;5075643;28;20476;-59
2021/03/10 12:26:04;;;;;;;22.83;15.53;;;15.00;49.70;;;;;;5074704;28;20458;-59
2021/03/10 12:28:39;;;;;;;24.33;15.27;;;15.10;49.60;;;;;;5074777;28;20440;-60
2021/03/10 12:31:07;;;;;;;23.77;15.07;;;15.00;49.60;;;;;;5068906;28;20465;-60
2021/03/10 12:33:36;;;;;;;22.30;14.13;;;15.10;49.80;;;;;;5067712;28;20446;-59
2021/03/10 12:36:05;;;;;;;23.00;15.67;;;15.20;49.70;;;;;;5072992;28;20442;-59
2021/03/10 12:38:32;;;;;;;19.87;12.80;;;15.10;49.80;;;;;;5075699;28;20445;-62
2021/03/10 12:41:00;;;;;;;22.23;13.73;;;15.10;49.80;;;;;;5075665;28;20520;-59